Thursday, April 19, 2018, 5:13 PM EDT

KOKV, Winchester Regional

Location: Winchester, VA, United States Lat: 39.15
Local Time: 5:13 PM EDT (21:13 GMT) Lon: -78.15
Time Zone: US/Eastern Elev: 728 ft

Show me the last for .
Show Decoded

2018-04-19 16:35 METAR KOKV 192035Z AUTO 32016G23KT 10SM BKN045 OVC050 06/M03 A3005 RMK AO2 =
2018-04-19 16:15 METAR KOKV 192015Z AUTO 30023G30KT 10SM SCT043 BKN048 OVC050 07/M02 A3003 RMK
                 AO2 =
2018-04-19 15:55 METAR KOKV 191955Z AUTO 31023G31KT 10SM BKN048 OVC055 08/M01 A3001 RMK AO2 =
2018-04-19 15:35 METAR KOKV 191935Z AUTO 32018G29KT 10SM BKN048 OVC055 07/M02 A3000 RMK AO2 =
2018-04-19 15:15 METAR KOKV 191915Z AUTO 30017G25KT 10SM BKN048 OVC055 07/M01 A2998 RMK AO2 =
2018-04-19 14:55 METAR KOKV 191855Z AUTO 27019G24KT 10SM OVC048 07/M01 A2997 RMK AO2 =
2018-04-19 14:35 METAR KOKV 191835Z AUTO 29013G26KT 10SM OVC048 07/M02 A2996 RMK AO2 =
2018-04-19 14:15 METAR KOKV 191815Z AUTO 30021G24KT 10SM OVC046 07/M01 A2995 RMK AO2 =
2018-04-19 13:55 METAR KOKV 191755Z AUTO 29013G26KT 10SM OVC046 07/M01 A2994 RMK AO2 =
2018-04-19 13:35 METAR KOKV 191735Z AUTO 28020G36KT 10SM SCT041 OVC046 07/M01 A2992 RMK AO2 =
2018-04-19 13:15 METAR KOKV 191715Z AUTO 30016G27KT 10SM BKN039 BKN048 OVC075 10/00 A2991 RMK AO2
                 =
2018-04-19 12:55 METAR KOKV 191655Z AUTO 30015G26KT 10SM SCT027 SCT035 OVC075 08/00 A2990 RMK AO2
                 =
2018-04-19 12:35 METAR KOKV 191635Z AUTO 31019G30KT 10SM SCT029 BKN046 OVC110 08/02 A2989 RMK AO2
                 =
2018-04-19 12:15 METAR KOKV 191615Z AUTO 28019G24KT 10SM SCT047 OVC090 09/00 A2986 RMK AO2 =
2018-04-19 11:55 METAR KOKV 191555Z AUTO 28017G25KT 10SM SCT070 OVC080 08/00 A2984 RMK AO2 =
2018-04-19 11:35 METAR KOKV 191535Z AUTO 28017G33KT 10SM OVC070 08/00 A2984 RMK AO2 =
2018-04-19 11:15 METAR KOKV 191515Z AUTO 30025G31KT 10SM OVC060 08/01 A2983 RMK AO2 =
2018-04-19 10:55 METAR KOKV 191455Z AUTO 30021G28KT 10SM BKN047 OVC050 08/02 A2981 RMK AO2 =
2018-04-19 10:35 METAR KOKV 191435Z AUTO 30016KT 10SM OVC046 08/03 A2980 RMK AO2 =
2018-04-19 10:15 METAR KOKV 191415Z AUTO 30023G31KT 10SM SCT041 BKN048 OVC080 10/03 A2977 RMK AO2
                 =
2018-04-19 09:55 METAR KOKV 191355Z AUTO 27018G25KT 10SM DZ SCT055 OVC065 11/05 A2975 RMK AO2 =
2018-04-19 09:35 METAR KOKV 191335Z AUTO 28020G24KT 10SM BKN075 OVC085 12/03 A2973 RMK AO2 =
2018-04-19 09:15 METAR KOKV 191315Z AUTO 28018G22KT 10SM SCT080 BKN085 12/05 A2972 RMK AO2 =
2018-04-19 08:55 METAR KOKV 191255Z AUTO 28016G22KT 10SM SCT090 12/05 A2972 RMK AO2 =
2018-04-19 08:35 METAR KOKV 191235Z AUTO 26008KT 10SM SCT075 SCT085 10/06 A2972 RMK AO2 =
2018-04-19 08:15 METAR KOKV 191215Z AUTO 26003KT 10SM SCT050 SCT075 BKN085 08/06 A2973 RMK AO2 =
2018-04-19 07:55 METAR KOKV 191155Z AUTO 28005KT 10SM SCT042 OVC048 08/05 A2973 RMK AO2 =
2018-04-19 07:35 METAR KOKV 191135Z AUTO 25004KT 10SM -DZ OVC045 08/05 A2973 RMK AO2 =
2018-04-19 07:15 METAR KOKV 191115Z AUTO 27006KT 10SM SCT040 OVC048 07/05 A2974 RMK AO2 =
2018-04-19 06:55 METAR KOKV 191055Z AUTO 28007KT 10SM SCT046 OVC060 07/05 A2972 RMK AO2 =
2018-04-19 06:35 METAR KOKV 191035Z AUTO 28005KT 10SM BKN070 OVC100 07/05 A2971 RMK AO2 =
2018-04-19 06:15 METAR KOKV 191015Z AUTO 28006KT 10SM OVC090 07/05 A2971 RMK AO2 =
2018-04-19 05:55 METAR KOKV 190955Z AUTO 29004KT 10SM SCT016 SCT070 OVC090 07/05 A2969 RMK AO2 =
2018-04-19 05:35 METAR KOKV 190935Z AUTO 00000KT 10SM OVC014 07/05 A2968 RMK AO2 =
2018-04-19 05:15 METAR KOKV 190915Z AUTO 00000KT 10SM SCT014 BKN090 07/05 A2968 RMK AO2 =
2018-04-19 04:55 METAR KOKV 190855Z AUTO 09005KT 10SM SCT070 OVC090 08/05 A2968 RMK AO2 =
2018-04-19 04:35 METAR KOKV 190835Z AUTO 00000KT 10SM SCT060 OVC070 08/05 A2970 RMK AO2 =
2018-04-19 04:15 METAR KOKV 190815Z AUTO 35003KT 10SM SCT041 OVC050 09/04 A2972 RMK AO2 =
2018-04-19 03:55 METAR KOKV 190755Z AUTO 33007KT 10SM -RA SCT043 OVC050 08/04 A2972 RMK AO2 =
2018-04-19 03:35 METAR KOKV 190735Z AUTO 34005KT 10SM OVC060 10/03 A2972 RMK AO2 =
2018-04-19 03:15 METAR KOKV 190715Z AUTO 34003KT 10SM BKN070 OVC090 10/03 A2970 RMK AO2 =
2018-04-19 02:55 METAR KOKV 190655Z AUTO 34004KT 10SM BKN075 OVC090 10/03 A2967 RMK AO2 =
2018-04-19 02:35 METAR KOKV 190635Z AUTO 33005KT 10SM BKN085 BKN110 09/03 A2967 RMK AO2 =
2018-04-19 02:15 METAR KOKV 190615Z AUTO 33005KT 10SM SCT080 SCT100 SCT120 08/03 A2963 RMK AO2 =
2018-04-19 01:55 METAR KOKV 190555Z AUTO 12003KT 10SM BKN090 BKN110 08/03 A2963 RMK AO2 =
2018-04-19 01:35 METAR KOKV 190535Z AUTO 12004KT 10SM SCT090 09/03 A2964 RMK AO2 =
2018-04-19 01:15 METAR KOKV 190515Z AUTO 13008KT 10SM SCT090 09/03 A2964 RMK AO2 =
2018-04-19 00:55 METAR KOKV 190455Z AUTO 10003KT 10SM OVC090 08/03 A2965 RMK AO2 =
2018-04-19 00:35 METAR KOKV 190435Z AUTO 00000KT 10SM BKN100 07/03 A2966 RMK AO2 =
2018-04-19 00:15 METAR KOKV 190415Z AUTO 00000KT 10SM OVC100 09/03 A2967 RMK AO2 =
2018-04-18 23:55 METAR KOKV 190355Z AUTO 00000KT 10SM OVC100 09/03 A2968 RMK AO2 =
2018-04-18 23:35 METAR KOKV 190335Z AUTO 00000KT 10SM OVC100 10/03 A2969 RMK AO2 =
2018-04-18 23:15 METAR KOKV 190315Z AUTO 00000KT 10SM OVC110 10/03 A2970 RMK AO2 =
2018-04-18 22:55 METAR KOKV 190255Z AUTO 00000KT 10SM OVC110 09/03 A2971 RMK AO2 =
2018-04-18 22:35 METAR KOKV 190235Z AUTO 00000KT 10SM OVC100 09/03 A2972 RMK AO2 =
2018-04-18 22:15 METAR KOKV 190215Z AUTO 00000KT 10SM BKN100 08/03 A2973 RMK AO2 =
2018-04-18 21:55 METAR KOKV 190155Z AUTO 00000KT 10SM SCT110 10/03 A2973 RMK AO2 =
2018-04-18 21:35 METAR KOKV 190135Z AUTO 00000KT 10SM CLR 09/03 A2974 RMK AO2 =
2018-04-18 21:15 METAR KOKV 190115Z AUTO 02003KT 10SM CLR 11/03 A2974 RMK AO2 =
2018-04-18 20:55 METAR KOKV 190055Z AUTO 04003KT 10SM CLR 11/03 A2973 RMK AO2 =
2018-04-18 20:35 METAR KOKV 190035Z AUTO 04003KT 10SM CLR 12/02 A2973 RMK AO2 =
2018-04-18 20:15 METAR KOKV 190015Z AUTO 00000KT 10SM CLR 10/03 A2973 RMK AO2 =
2018-04-18 19:55 METAR KOKV 182355Z AUTO 08003KT 10SM CLR 12/03 A2974 RMK AO2 =
2018-04-18 19:35 METAR KOKV 182335Z AUTO 08003KT 10SM CLR 13/02 A2974 RMK AO2 =
2018-04-18 19:15 METAR KOKV 182315Z AUTO 09004KT 10SM CLR 14/02 A2975 RMK AO2 =
2018-04-18 18:55 METAR KOKV 182255Z AUTO 10004KT 10SM CLR 15/03 A2975 RMK AO2 =
2018-04-18 18:35 METAR KOKV 182235Z AUTO 10005KT 10SM CLR 15/02 A2975 RMK AO2 =
2018-04-18 18:15 METAR KOKV 182215Z AUTO 16003KT 10SM CLR 15/02 A2976 RMK AO2 =
2018-04-18 17:55 METAR KOKV 182155Z AUTO 15004KT 10SM CLR 15/02 A2976 RMK AO2 =
2018-04-18 17:35 METAR KOKV 182135Z AUTO 11005KT 10SM CLR 15/02 A2976 RMK AO2 =
2018-04-18 17:15 METAR KOKV 182115Z AUTO 11007KT 10SM CLR 15/02 A2976 RMK AO2 =

Support USWX by starting your Amazon purchase here.